createdAt,value
2023-03-12T00:00:48.833Z,14.93
2023-03-12T00:03:17.656Z,11.63
2023-03-12T00:05:53.400Z,11.77
2023-03-12T00:08:20.108Z,14.27
2023-03-12T00:10:53.618Z,12.88
2023-03-12T00:13:27.560Z,12.63
2023-03-12T00:15:57.342Z,12.43
2023-03-12T00:18:27.001Z,10.85
2023-03-12T00:20:55.013Z,10.15
2023-03-12T00:23:26.043Z,11.23
2023-03-12T00:26:03.814Z,11.13
2023-03-12T00:28:31.306Z,10.82
2023-03-12T00:30:58.817Z,10.23
2023-03-12T00:33:26.276Z,10.32
2023-03-12T00:35:53.976Z,9.98
2023-03-12T00:38:23.400Z,9.65
2023-03-12T00:40:50.137Z,10.93
2023-03-12T00:43:16.790Z,9.30
2023-03-12T00:45:43.413Z,9.63
2023-03-12T00:48:10.234Z,8.52
2023-03-12T00:50:36.970Z,9.25
2023-03-12T00:53:12.836Z,9.15
2023-03-12T00:55:44.412Z,8.20
2023-03-12T00:58:11.232Z,10.27
2023-03-12T01:00:38.029Z,10.40
2023-03-12T01:03:04.856Z,10.43
2023-03-12T01:05:34.105Z,10.20
2023-03-12T01:08:01.803Z,9.77
2023-03-12T01:10:30.410Z,9.40
2023-03-12T01:13:02.132Z,9.55
2023-03-12T01:15:32.071Z,10.27
2023-03-12T01:17:58.812Z,9.90
2023-03-12T01:20:25.964Z,8.48
2023-03-12T01:23:00.523Z,8.73
2023-03-12T01:25:27.370Z,9.13
2023-03-12T01:27:54.309Z,9.43
2023-03-12T01:30:20.929Z,9.10
2023-03-12T01:32:47.746Z,8.52
2023-03-12T01:35:15.776Z,8.05
2023-03-12T01:37:42.545Z,7.68
2023-03-12T01:40:16.193Z,7.35
2023-03-12T01:42:52.731Z,8.13
2023-03-12T01:46:13.876Z,6.72
2023-03-12T01:49:04.539Z,6.55
2023-03-12T01:51:39.604Z,5.85
2023-03-12T01:54:11.860Z,6.60
2023-03-12T01:56:42.344Z,5.78
2023-03-12T01:59:20.372Z,5.15
2023-03-12T02:01:48.498Z,4.75
2023-03-12T02:04:20.813Z,5.05
2023-03-12T02:06:54.885Z,5.47
2023-03-12T02:09:22.130Z,4.93
2023-03-12T02:11:56.665Z,5.25
2023-03-12T02:14:29.472Z,5.28
2023-03-12T02:16:59.935Z,6.18
2023-03-12T02:19:40.531Z,5.90
2023-03-12T02:22:08.042Z,6.13
2023-03-12T02:24:52.761Z,5.72
2023-03-12T02:27:21.351Z,7.00
2023-03-12T02:29:54.811Z,5.22
2023-03-12T02:32:28.130Z,7.38
2023-03-12T02:34:57.538Z,6.90
2023-03-12T02:37:24.251Z,6.15
2023-03-12T02:39:58.351Z,5.65
2023-03-12T02:42:25.570Z,7.97
2023-03-12T02:44:52.404Z,7.40
2023-03-12T02:47:19.288Z,7.03
2023-03-12T02:49:49.118Z,8.18
2023-03-12T02:52:24.596Z,9.10
2023-03-12T02:54:58.444Z,7.50
2023-03-12T02:57:27.857Z,8.63
2023-03-12T02:59:56.114Z,9.77
2023-03-12T03:02:23.090Z,8.00
2023-03-12T03:04:50.228Z,9.02
2023-03-12T03:07:17.390Z,8.70
2023-03-12T03:10:00.032Z,9.15
2023-03-12T03:12:26.809Z,10.15
2023-03-12T03:15:02.373Z,9.70
2023-03-12T03:17:29.610Z,10.40
2023-03-12T03:19:56.634Z,11.75
2023-03-12T03:22:23.404Z,10.93
2023-03-12T03:24:50.172Z,11.30
2023-03-12T03:27:16.970Z,12.20
2023-03-12T03:29:46.442Z,11.38
2023-03-12T03:32:22.795Z,11.40
2023-03-12T03:34:55.434Z,12.07
2023-03-12T03:37:22.085Z,11.35
2023-03-12T03:39:48.744Z,11.35
2023-03-12T03:42:15.441Z,10.73
2023-03-12T03:44:42.303Z,10.82
2023-03-12T03:47:11.056Z,10.43
2023-03-12T03:49:39.053Z,10.10
2023-03-12T03:52:06.595Z,10.57
2023-03-12T03:54:34.922Z,10.23
2023-03-12T03:57:04.761Z,9.93
2023-03-12T03:59:39.580Z,9.88
2023-03-12T04:02:06.954Z,9.55
2023-03-12T04:04:33.780Z,10.32
2023-03-12T04:07:00.582Z,10.00
2023-03-12T04:09:40.856Z,10.88
2023-03-12T04:12:10.760Z,9.88
2023-03-12T04:14:40.420Z,10.27
2023-03-12T04:17:09.312Z,12.30
2023-03-12T04:19:36.444Z,10.07
2023-03-12T04:22:07.215Z,11.32
2023-03-12T04:24:34.065Z,10.82
2023-03-12T04:27:00.778Z,10.93
2023-03-12T04:29:27.916Z,9.98
2023-03-12T04:32:01.092Z,10.40
2023-03-12T04:34:34.920Z,10.88
2023-03-12T04:37:16.584Z,10.38
2023-03-12T04:39:46.826Z,11.40
2023-03-12T04:42:13.962Z,11.00
2023-03-12T04:44:41.196Z,10.30
2023-03-12T04:47:07.900Z,9.57
2023-03-12T04:49:37.819Z,10.35
2023-03-12T04:52:07.958Z,9.85
2023-03-12T04:54:34.784Z,10.93
2023-03-12T04:57:01.520Z,8.25
2023-03-12T04:59:28.330Z,10.20
2023-03-12T05:01:58.481Z,10.68
2023-03-12T05:04:25.207Z,11.13
2023-03-12T05:06:54.384Z,10.10
2023-03-12T05:09:21.206Z,10.05
2023-03-12T05:11:48.306Z,10.15
2023-03-12T05:14:25.700Z,9.82
2023-03-12T05:16:54.197Z,10.57
2023-03-12T05:19:25.047Z,10.32
2023-03-12T05:21:58.942Z,11.07
2023-03-12T05:24:29.316Z,10.35
2023-03-12T05:26:56.054Z,11.68
2023-03-12T05:29:22.750Z,10.30
2023-03-12T05:31:57.735Z,11.07
2023-03-12T05:34:28.259Z,9.18
2023-03-12T05:36:54.996Z,11.07
2023-03-12T05:39:22.024Z,11.60
2023-03-12T05:41:48.757Z,11.30
2023-03-12T05:44:16.247Z,11.60
2023-03-12T05:46:43.846Z,10.98
2023-03-12T05:49:12.543Z,10.93
2023-03-12T05:51:39.227Z,8.70
2023-03-12T05:54:06.098Z,11.30
2023-03-12T05:56:40.956Z,11.20
2023-03-12T05:59:18.564Z,10.48
2023-03-12T06:01:45.245Z,9.27
2023-03-12T06:04:23.644Z,7.47
2023-03-12T06:06:50.279Z,9.20
2023-03-12T06:09:16.975Z,10.65
2023-03-12T06:11:49.872Z,10.57
2023-03-12T06:14:16.659Z,8.88
2023-03-12T06:16:43.450Z,9.52
2023-03-12T06:19:19.927Z,9.20
2023-03-12T06:21:47.139Z,7.70
2023-03-12T06:24:23.711Z,6.10
2023-03-12T06:26:50.709Z,7.68
2023-03-12T06:29:17.539Z,8.27
2023-03-12T06:31:52.659Z,7.18
2023-03-12T06:34:20.697Z,7.40
2023-03-12T06:36:47.394Z,7.40
2023-03-12T06:39:19.952Z,7.10
2023-03-12T06:41:49.920Z,7.05
2023-03-12T06:44:19.391Z,7.88
2023-03-12T06:46:52.425Z,6.95
2023-03-12T06:49:19.671Z,6.53
2023-03-12T06:51:46.876Z,7.43
2023-03-12T06:54:13.559Z,7.30
2023-03-12T06:56:43.413Z,7.25
2023-03-12T06:59:12.565Z,7.68
2023-03-12T07:01:39.307Z,6.75
2023-03-12T07:04:06.057Z,7.45
2023-03-12T07:06:32.933Z,6.65
2023-03-12T07:09:02.005Z,6.13
2023-03-12T07:11:28.747Z,6.68
2023-03-12T07:13:55.492Z,7.53
2023-03-12T07:16:28.801Z,8.88
2023-03-12T07:18:59.265Z,7.75
2023-03-12T07:21:30.075Z,6.13
2023-03-12T07:26:37.279Z,7.68
2023-03-12T07:29:09.449Z,6.22
2023-03-12T07:31:36.429Z,6.25
2023-03-12T07:34:06.754Z,8.30
2023-03-12T07:36:34.569Z,7.63
2023-03-12T07:39:01.348Z,6.60
2023-03-12T07:41:30.514Z,6.78
2023-03-12T07:43:57.269Z,5.43
2023-03-12T07:46:26.914Z,7.05
2023-03-12T07:48:53.719Z,6.13
2023-03-12T07:51:20.556Z,5.25
2023-03-12T07:53:51.711Z,4.63
2023-03-12T07:56:18.699Z,5.10
2023-03-12T07:58:45.678Z,5.60
2023-03-12T08:01:20.102Z,5.50
2023-03-12T08:03:50.441Z,5.38
2023-03-12T08:06:17.248Z,6.65
2023-03-12T08:08:44.290Z,5.38
2023-03-12T08:11:11.296Z,5.22
2023-03-12T08:13:40.217Z,4.40
2023-03-12T08:16:12.715Z,4.10
2023-03-12T08:18:39.662Z,4.82
2023-03-12T08:21:06.495Z,5.95
2023-03-12T08:23:41.753Z,5.15
2023-03-12T08:26:08.777Z,5.15
2023-03-12T08:28:35.847Z,5.70
2023-03-12T08:31:02.869Z,5.07
2023-03-12T08:33:32.937Z,5.25
2023-03-12T08:35:59.762Z,5.15
2023-03-12T08:38:34.979Z,3.95
2023-03-12T08:41:02.058Z,4.85
2023-03-12T08:43:29.650Z,4.20
2023-03-12T08:45:58.913Z,5.25
2023-03-12T08:48:38.923Z,5.80
2023-03-12T08:51:09.775Z,4.43
2023-03-12T08:53:37.275Z,3.80
2023-03-12T08:56:07.164Z,3.38
2023-03-12T08:58:49.815Z,4.65
2023-03-12T09:01:16.599Z,3.65
2023-03-12T09:03:43.414Z,3.90
2023-03-12T09:06:19.155Z,4.00
2023-03-12T09:08:47.209Z,4.18
2023-03-12T09:11:17.545Z,3.58
2023-03-12T09:14:26.521Z,3.53
2023-03-12T09:16:34.866Z,3.92
2023-03-12T09:19:01.833Z,4.45
2023-03-12T09:21:29.044Z,3.65
2023-03-12T09:23:56.082Z,3.63
2023-03-12T09:26:22.898Z,3.58
2023-03-12T09:28:57.971Z,4.55
2023-03-12T09:31:25.348Z,4.20
2023-03-12T09:33:57.469Z,3.72
2023-03-12T09:36:24.574Z,3.33
2023-03-12T09:38:51.268Z,4.50
2023-03-12T09:41:29.970Z,4.38
2023-03-12T09:44:12.240Z,3.88
2023-03-12T09:46:45.083Z,3.47
2023-03-12T09:49:34.751Z,4.82
2023-03-12T09:52:34.554Z,4.03
2023-03-12T09:55:16.864Z,4.05
2023-03-12T09:57:45.004Z,4.40
2023-03-12T10:00:15.603Z,3.88
2023-03-12T10:03:20.177Z,3.92
2023-03-12T10:06:06.955Z,4.70
2023-03-12T10:08:39.040Z,4.00
2023-03-12T10:11:34.130Z,4.57
2023-03-12T10:14:24.136Z,3.88
2023-03-12T10:17:16.872Z,4.00
2023-03-12T10:20:17.388Z,4.15
2023-03-12T10:23:02.933Z,4.68
2023-03-12T10:26:02.152Z,4.07
2023-03-12T10:28:42.830Z,4.03
2023-03-12T10:31:43.329Z,4.00
2023-03-12T10:34:30.985Z,4.70
2023-03-12T10:37:03.085Z,4.85
2023-03-12T10:39:29.762Z,6.28
2023-03-12T10:42:01.458Z,4.65
2023-03-12T10:44:29.120Z,5.30
2023-03-12T10:47:24.386Z,6.53
2023-03-12T10:49:54.330Z,6.15
2023-03-12T10:52:24.166Z,4.88
2023-03-12T10:54:59.243Z,5.30
2023-03-12T10:57:40.634Z,4.88
2023-03-12T11:00:18.552Z,5.65
2023-03-12T11:02:46.607Z,7.15
2023-03-12T11:05:34.245Z,7.05
2023-03-12T11:08:13.322Z,38.08
2023-03-12T11:10:49.224Z,10.13
2023-03-12T11:13:43.964Z,9.63
2023-03-12T11:16:10.694Z,9.15
2023-03-12T11:18:38.866Z,10.38
2023-03-12T11:21:10.000Z,6.03
2023-03-12T11:24:09.557Z,9.90
2023-03-12T11:26:54.528Z,10.13
2023-03-12T11:29:37.071Z,14.43
2023-03-12T11:32:25.944Z,13.88
2023-03-12T11:34:53.339Z,13.25
2023-03-12T11:37:27.238Z,10.30
2023-03-12T11:40:16.349Z,11.25
2023-03-12T11:43:07.643Z,11.38
2023-03-12T11:45:58.308Z,10.23
2023-03-12T11:48:43.553Z,12.60
2023-03-12T11:52:17.273Z,9.13
2023-03-12T11:55:18.296Z,10.10
2023-03-12T11:58:24.588Z,9.70
2023-03-12T12:01:08.113Z,10.00
2023-03-12T12:03:56.209Z,7.32
2023-03-12T12:06:54.404Z,6.07
2023-03-12T12:09:34.783Z,7.10
2023-03-12T12:12:36.626Z,8.40
2023-03-12T12:15:04.065Z,7.20
2023-03-12T12:17:33.683Z,6.30
2023-03-12T12:20:38.425Z,6.15
2023-03-12T12:23:15.925Z,6.55
2023-03-12T12:26:15.353Z,6.85
2023-03-12T12:29:22.148Z,7.90
2023-03-12T12:31:57.423Z,7.28
2023-03-12T12:35:02.022Z,7.78
2023-03-12T12:37:53.423Z,7.57
2023-03-12T12:40:34.677Z,7.05
2023-03-12T12:43:18.708Z,6.85
2023-03-12T12:45:48.686Z,6.85
2023-03-12T12:48:53.669Z,6.13
2023-03-12T12:51:31.485Z,6.07
2023-03-12T12:54:20.340Z,6.22
2023-03-12T12:57:04.632Z,6.35
2023-03-12T12:59:58.013Z,6.47
2023-03-12T13:02:35.168Z,7.13
2023-03-12T13:05:24.586Z,6.43
2023-03-12T13:07:51.390Z,6.07
2023-03-12T13:11:02.503Z,6.65
2023-03-12T13:14:35.029Z,7.00
2023-03-12T13:17:30.346Z,6.75
2023-03-12T13:20:08.630Z,6.53
2023-03-12T13:22:49.744Z,6.35
2023-03-12T13:25:49.653Z,6.90
2023-03-12T13:28:51.829Z,6.28
2023-03-12T13:34:00.049Z,6.72
2023-03-12T13:36:31.283Z,5.80
2023-03-12T13:39:07.040Z,6.82
2023-03-12T13:41:45.915Z,6.03
2023-03-12T13:44:25.460Z,6.65
2023-03-12T13:47:01.401Z,6.55
2023-03-12T13:50:05.144Z,6.75
2023-03-12T13:52:47.069Z,7.18
2023-03-12T13:58:10.396Z,6.05
2023-03-12T14:00:48.418Z,7.07
2023-03-12T14:03:27.419Z,7.15
2023-03-12T14:06:11.113Z,6.47
2023-03-12T14:08:53.144Z,6.05
2023-03-12T14:11:45.463Z,6.90
2023-03-12T14:14:28.664Z,6.40
2023-03-12T14:17:10.979Z,5.85
2023-03-12T14:19:51.685Z,6.20
2023-03-12T14:22:33.775Z,6.07
2023-03-12T14:25:12.895Z,6.40
2023-03-12T14:27:55.025Z,5.97
2023-03-12T14:30:51.406Z,6.10
2023-03-12T14:33:25.102Z,6.38
2023-03-12T14:36:03.668Z,5.70
2023-03-12T14:38:32.973Z,5.68
2023-03-12T14:41:14.132Z,5.95
2023-03-12T14:43:43.599Z,6.03
2023-03-12T14:46:16.983Z,5.88
2023-03-12T14:48:47.226Z,6.10
2023-03-12T14:51:41.739Z,6.10
2023-03-12T14:54:18.303Z,5.40
2023-03-12T14:56:56.275Z,5.95
2023-03-12T14:59:40.896Z,6.35
2023-03-12T15:05:18.103Z,6.60
2023-03-12T15:07:49.192Z,5.40
2023-03-12T15:10:30.717Z,5.75
2023-03-12T15:13:02.712Z,5.75
2023-03-12T15:15:40.371Z,5.90
2023-03-12T15:18:38.277Z,5.40
2023-03-12T15:21:11.271Z,5.85
2023-03-12T15:23:39.435Z,5.80
2023-03-12T15:26:10.366Z,6.00
2023-03-12T15:28:40.541Z,4.90
2023-03-12T15:31:25.821Z,5.80
2023-03-12T15:34:11.464Z,6.22
2023-03-12T15:36:48.741Z,5.22
2023-03-12T15:39:15.412Z,5.43
2023-03-12T15:42:02.678Z,4.80
2023-03-12T15:44:54.625Z,5.70
2023-03-12T15:47:48.097Z,5.50
2023-03-12T15:50:27.734Z,4.93
2023-03-12T15:53:31.206Z,4.60
2023-03-12T15:59:32.069Z,4.88
2023-03-12T16:02:01.560Z,4.13
2023-03-12T16:04:48.579Z,3.97
2023-03-12T16:07:17.682Z,4.65
2023-03-12T16:09:47.465Z,4.60
2023-03-12T16:12:17.116Z,4.22
2023-03-12T16:15:01.903Z,5.13
2023-03-12T16:17:31.335Z,4.28
2023-03-12T16:19:57.939Z,4.10
2023-03-12T16:22:27.885Z,4.35
2023-03-12T16:24:56.593Z,4.30
2023-03-12T16:27:32.544Z,4.10
2023-03-12T16:29:59.782Z,4.30
2023-03-12T16:32:38.708Z,3.67
2023-03-12T16:35:35.520Z,4.47
2023-03-12T16:38:12.298Z,4.00
2023-03-12T16:40:43.546Z,3.58
2023-03-12T16:43:25.320Z,3.88
2023-03-12T16:48:39.744Z,3.85
2023-03-12T16:51:21.268Z,3.67
2023-03-12T16:53:55.843Z,4.80
2023-03-12T16:56:32.458Z,3.75
2023-03-12T16:59:04.929Z,3.30
2023-03-12T17:01:38.006Z,3.85
2023-03-12T17:04:10.591Z,3.42
2023-03-12T17:06:40.578Z,3.50
2023-03-12T17:09:15.862Z,3.97
2023-03-12T17:11:45.186Z,3.40
2023-03-12T17:14:43.292Z,3.33
2023-03-12T17:17:10.114Z,3.33
2023-03-12T17:22:40.651Z,3.80
2023-03-12T17:25:19.467Z,4.15
2023-03-12T17:27:46.211Z,3.28
2023-03-12T17:30:20.364Z,3.67
2023-03-12T17:32:49.044Z,3.35
2023-03-12T17:35:18.964Z,3.00
2023-03-12T17:37:48.466Z,3.33
2023-03-12T17:40:18.285Z,3.33
2023-03-12T17:42:45.016Z,3.60
2023-03-12T17:45:11.807Z,3.63
2023-03-12T17:47:44.385Z,3.28
2023-03-12T17:50:12.943Z,3.38
2023-03-12T17:52:39.708Z,3.92
2023-03-12T17:55:13.939Z,3.80
2023-03-12T17:57:40.887Z,4.13
2023-03-12T18:00:13.232Z,4.32
2023-03-12T18:03:04.831Z,3.53
2023-03-12T18:05:42.796Z,4.60
2023-03-12T18:08:17.663Z,4.35
2023-03-12T18:13:57.598Z,3.38
2023-03-12T18:16:27.321Z,3.65
2023-03-12T18:18:54.116Z,4.13
2023-03-12T18:21:39.105Z,4.05
2023-03-12T18:24:13.958Z,4.43
2023-03-12T18:26:48.071Z,3.78
2023-03-12T18:29:29.557Z,4.30
2023-03-12T18:32:09.544Z,4.18
2023-03-12T18:37:23.047Z,3.95
2023-03-12T18:39:49.688Z,4.72
2023-03-12T18:42:21.819Z,4.75
2023-03-12T18:44:51.466Z,6.10
2023-03-12T18:47:19.008Z,4.95
2023-03-12T18:49:55.074Z,4.38
2023-03-12T18:52:24.734Z,4.43
2023-03-12T18:54:51.475Z,4.72
2023-03-12T18:57:18.248Z,4.00
2023-03-12T18:59:50.206Z,6.13
2023-03-12T19:02:17.059Z,4.43
2023-03-12T19:04:44.247Z,5.78
2023-03-12T19:07:11.236Z,5.60
2023-03-12T19:09:37.959Z,5.03
2023-03-12T19:12:04.981Z,4.60
2023-03-12T19:14:31.790Z,6.30
2023-03-12T19:16:58.509Z,4.47
2023-03-12T19:19:25.199Z,4.47
2023-03-12T19:21:52.097Z,5.47
2023-03-12T19:24:18.842Z,4.80
2023-03-12T19:26:45.620Z,4.70
2023-03-12T19:29:17.271Z,3.72
2023-03-12T19:31:46.230Z,5.47
2023-03-12T19:34:17.440Z,4.93
2023-03-12T19:36:46.884Z,4.60
2023-03-12T19:39:21.066Z,5.20
2023-03-12T19:41:48.771Z,5.28
2023-03-12T19:44:15.524Z,5.10
2023-03-12T19:46:52.506Z,5.13
2023-03-12T19:52:11.533Z,5.45
2023-03-12T19:54:38.162Z,4.57
2023-03-12T19:57:09.256Z,6.15
2023-03-12T19:59:36.141Z,4.88
2023-03-12T20:02:07.272Z,5.70
2023-03-12T20:04:37.168Z,5.50
2023-03-12T20:07:03.944Z,6.05
2023-03-12T20:09:45.846Z,6.18
2023-03-12T20:12:12.551Z,5.82
2023-03-12T20:14:48.441Z,6.13
2023-03-12T20:17:18.177Z,4.75
2023-03-12T20:19:47.941Z,5.45
2023-03-12T20:22:15.923Z,6.00
2023-03-12T20:24:49.655Z,6.28
2023-03-12T20:27:25.795Z,4.93
2023-03-12T20:32:40.431Z,5.65
2023-03-12T20:35:07.307Z,6.90
2023-03-12T20:37:33.971Z,4.78
2023-03-12T20:40:08.512Z,5.00
2023-03-12T20:42:50.610Z,6.28
2023-03-12T20:47:43.946Z,6.43
2023-03-12T20:50:13.929Z,7.13
2023-03-12T20:52:40.616Z,6.35
2023-03-12T20:55:13.531Z,7.97
2023-03-12T21:00:32.683Z,6.97
2023-03-12T21:03:02.420Z,6.07
2023-03-12T21:05:32.542Z,7.30
2023-03-12T21:07:59.304Z,6.90
2023-03-12T21:10:31.476Z,5.55
2023-03-12T21:13:04.128Z,7.38
2023-03-12T21:15:33.895Z,7.90
2023-03-12T21:18:03.663Z,7.75
2023-03-12T21:20:36.493Z,6.82
2023-03-12T21:23:09.793Z,7.50
2023-03-12T21:25:42.907Z,6.50
2023-03-12T21:28:10.747Z,8.18
2023-03-12T21:30:46.539Z,7.40
2023-03-12T21:33:45.152Z,8.75
2023-03-12T21:39:33.142Z,8.27
2023-03-12T21:42:05.706Z,10.10
2023-03-12T21:44:35.154Z,10.02
2023-03-12T21:47:01.929Z,8.38
2023-03-12T21:49:28.585Z,9.27
2023-03-12T21:51:58.294Z,9.57
2023-03-12T21:54:35.792Z,8.57
2023-03-12T21:57:06.010Z,8.00
2023-03-12T21:59:32.913Z,8.45
2023-03-12T22:02:02.794Z,9.85
2023-03-12T22:07:19.139Z,9.93
2023-03-12T22:10:00.514Z,9.68
2023-03-12T22:12:30.398Z,9.75
2023-03-12T22:14:56.998Z,10.40
2023-03-12T22:20:13.495Z,11.43
2023-03-12T22:22:42.239Z,11.50
2023-03-12T22:25:09.137Z,10.98
2023-03-12T22:27:44.054Z,11.15
2023-03-12T22:30:23.318Z,9.32
2023-03-12T22:32:52.310Z,11.35
2023-03-12T22:35:25.775Z,11.60
2023-03-12T22:37:55.864Z,7.93
2023-03-12T22:40:22.593Z,10.43
2023-03-12T22:43:06.208Z,11.50
2023-03-12T22:45:38.030Z,11.10
2023-03-12T22:48:04.966Z,11.93
2023-03-12T22:50:32.021Z,11.85
2023-03-12T22:52:59.206Z,12.23
2023-03-12T22:55:26.214Z,13.25
2023-03-12T22:57:53.270Z,12.93
2023-03-12T23:00:39.064Z,12.20
2023-03-12T23:03:29.067Z,12.32
2023-03-12T23:08:40.191Z,12.93
2023-03-12T23:11:18.161Z,13.18
2023-03-12T23:13:54.247Z,11.88
2023-03-12T23:16:23.268Z,14.40
2023-03-12T23:18:57.896Z,13.18
2023-03-12T23:21:25.124Z,13.65
2023-03-12T23:23:54.898Z,13.05
2023-03-12T23:26:24.628Z,13.82
2023-03-12T23:31:50.047Z,13.27
2023-03-12T23:34:22.775Z,13.90
2023-03-12T23:39:54.871Z,13.13
2023-03-12T23:42:27.426Z,13.25
2023-03-12T23:44:54.169Z,13.70
2023-03-12T23:47:24.038Z,12.85
2023-03-12T23:49:56.569Z,13.98
2023-03-12T23:52:26.805Z,12.10
2023-03-12T23:54:53.503Z,11.20
2023-03-12T23:57:26.389Z,11.80
2023-03-12T23:59:56.065Z,12.32
